Time;durP1;ratioP1;P1;durP2;ratioP2;P2;SDS_P1;SDS_P2;PMS_P1;PMS_P2;Temp;Humidity;BMP_temperature;BMP_pressure;BME280_temperature;BME280_humidity;BME280_pressure;Samples;Min_cycle;Max_cycle;Signal;HPM_P1;HPM_P2
2021/09/25 00:01:11;;;;;;;3.17;2.03;;;;;;;22.24;43.90;101242.16;4988352;28;20096;-73
2021/09/25 00:03:38;;;;;;;2.80;1.70;;;;;;;22.22;43.89;101235.94;5005154;28;20085;-73
2021/09/25 00:06:05;;;;;;;3.35;1.50;;;;;;;22.20;43.72;101243.53;5005894;28;20467;-73
2021/09/25 00:08:31;;;;;;;3.00;1.88;;;;;;;22.19;44.24;101244.56;5005412;28;20049;-73
2021/09/25 00:10:58;;;;;;;3.28;1.92;;;;;;;22.17;43.80;101238.34;5005534;28;20124;-73
2021/09/25 00:13:24;;;;;;;3.55;1.90;;;;;;;22.14;43.92;101241.47;5004935;28;20100;-73
2021/09/25 00:15:51;;;;;;;3.55;2.00;;;;;;;22.11;44.11;101236.25;4987930;28;20550;-72
2021/09/25 00:18:17;;;;;;;3.40;1.95;;;;;;;22.09;44.25;101235.53;5005271;28;20579;-72
2021/09/25 00:20:44;;;;;;;2.95;1.83;;;;;;;22.05;43.94;101234.16;5005816;28;20073;-73
2021/09/25 00:23:11;;;;;;;3.90;1.80;;;;;;;22.01;43.96;101237.25;5004744;28;20070;-73
2021/09/25 00:25:37;;;;;;;3.72;1.73;;;;;;;21.99;44.10;101239.31;5005368;28;20056;-72
2021/09/25 00:28:04;;;;;;;3.95;2.20;;;;;;;21.97;44.21;101223.94;5006870;28;20436;-73
2021/09/25 00:30:30;;;;;;;3.20;1.95;;;;;;;21.96;44.17;101234.09;5009103;28;20177;-74
2021/09/25 00:32:57;;;;;;;3.65;2.00;;;;;;;21.93;43.89;101230.78;5008306;28;20129;-73
2021/09/25 00:35:24;;;;;;;2.78;1.80;;;;;;;21.91;44.06;101233.72;5009351;28;20128;-72
2021/09/25 00:37:50;;;;;;;3.70;2.00;;;;;;;21.88;44.29;101227.69;5008278;28;20049;-73
2021/09/25 00:40:18;;;;;;;3.97;2.00;;;;;;;21.87;44.25;101234.22;5009392;28;20056;-73
2021/09/25 00:42:45;;;;;;;3.03;2.00;;;;;;;21.84;43.86;101231.78;5008071;28;20563;-72
2021/09/25 00:45:12;;;;;;;3.38;1.90;;;;;;;21.81;44.38;101234.91;5009292;28;20046;-72
2021/09/25 00:47:39;;;;;;;4.30;2.13;;;;;;;21.77;43.95;101237.13;5008079;28;20128;-73
2021/09/25 00:50:07;;;;;;;3.33;2.20;;;;;;;21.75;44.53;101244.69;5009379;28;20060;-73
2021/09/25 00:52:34;;;;;;;3.90;2.30;;;;;;;21.71;44.41;101239.69;5001930;28;20050;-73
2021/09/25 00:55:01;;;;;;;4.95;2.50;;;;;;;21.68;44.12;101243.63;4994085;28;20081;-72
2021/09/25 00:57:27;;;;;;;3.80;2.30;;;;;;;21.63;44.52;101233.09;5007621;28;20125;-73
2021/09/25 00:59:54;;;;;;;3.50;2.15;;;;;;;21.61;44.07;101234.28;5008893;28;20137;-73
2021/09/25 01:02:21;;;;;;;5.60;2.28;;;;;;;21.58;44.54;101238.22;5008061;28;20072;-72
2021/09/25 01:04:49;;;;;;;3.97;2.33;;;;;;;21.57;44.51;101238.41;5008926;28;20486;-73
2021/09/25 01:07:16;;;;;;;5.18;2.30;;;;;;;21.52;44.50;101233.38;5008781;28;20054;-72
2021/09/25 01:09:43;;;;;;;4.22;2.97;;;;;;;21.49;44.58;101236.47;5007652;28;20574;-71
2021/09/25 01:12:10;;;;;;;4.93;2.90;;;;;;;21.48;44.31;101231.09;4991073;28;20052;-72
2021/09/25 01:14:37;;;;;;;5.03;2.80;;;;;;;21.45;44.39;101234.19;4990244;28;20137;-73
2021/09/25 01:17:06;;;;;;;4.32;2.40;;;;;;;21.43;44.62;101228.81;5008441;28;20064;-73
2021/09/25 01:19:33;;;;;;;3.92;2.38;;;;;;;21.38;44.85;101228.47;5008273;28;20144;-73
2021/09/25 01:22:00;;;;;;;4.07;2.30;;;;;;;21.37;44.78;101237.78;5008462;28;20067;-73
2021/09/25 01:24:27;;;;;;;3.95;2.13;;;;;;;21.34;44.73;101238.09;5007661;28;20056;-74
2021/09/25 01:26:54;;;;;;;4.72;2.58;;;;;;;21.32;44.58;101237.41;5007957;28;20129;-73
2021/09/25 01:29:20;;;;;;;5.20;2.85;;;;;;;21.31;44.90;101234.78;4990174;28;20081;-73
2021/09/25 01:31:47;;;;;;;4.05;2.47;;;;;;;21.27;44.90;101231.47;5017336;28;20629;-73
2021/09/25 01:34:14;;;;;;;3.03;2.15;;;;;;;21.25;44.51;101237.16;5027193;28;20470;-73
2021/09/25 01:36:41;;;;;;;3.28;2.05;;;;;;;21.24;44.92;101242.88;5028054;28;20563;-73
2021/09/25 01:39:07;;;;;;;4.22;2.33;;;;;;;21.22;44.62;101245.78;5026829;28;20056;-74
2021/09/25 01:41:34;;;;;;;3.08;1.98;;;;;;;21.21;45.17;101251.47;5027782;28;20278;-73
2021/09/25 01:44:00;;;;;;;3.63;1.90;;;;;;;21.19;45.23;101254.38;5027573;28;20050;-73
2021/09/25 01:46:27;;;;;;;3.80;2.25;;;;;;;21.19;45.00;101248.00;5027610;28;20045;-74
2021/09/25 01:48:53;;;;;;;4.75;2.08;;;;;;;21.17;45.03;101248.16;5027526;28;20045;-74
2021/09/25 01:51:20;;;;;;;3.10;1.90;;;;;;;21.16;45.08;101240.91;5027683;28;20049;-74
2021/09/25 01:53:46;;;;;;;3.55;2.20;;;;;;;21.14;45.04;101239.31;4994533;28;20150;-73
2021/09/25 01:56:15;;;;;;;4.20;2.17;;;;;;;21.15;44.78;101239.16;4994874;28;20136;-74
2021/09/25 01:58:43;;;;;;;3.75;2.30;;;;;;;21.14;45.41;101244.84;5007120;28;20053;-74
2021/09/25 02:01:11;;;;;;;3.15;1.92;;;;;;;21.13;44.92;101243.09;4990629;28;20499;-74
2021/09/25 02:03:38;;;;;;;5.13;2.22;;;;;;;21.12;45.12;101241.34;4989836;28;20188;-74
2021/09/25 02:06:08;;;;;;;4.47;2.33;;;;;;;21.11;45.56;101247.91;5007317;28;20078;-73
2021/09/25 02:08:35;;;;;;;3.78;2.40;;;;;;;21.07;45.07;101244.63;5007089;28;20053;-73
2021/09/25 02:11:03;;;;;;;3.83;2.33;;;;;;;21.05;45.34;101245.78;5030235;22;20077;-74
2021/09/25 02:13:29;;;;;;;3.70;2.30;;;;;;;21.02;45.18;101237.81;5046548;28;20091;-74
2021/09/25 02:15:56;;;;;;;3.92;2.30;;;;;;;21.01;45.49;101236.09;5047061;28;20128;-73
2021/09/25 02:18:23;;;;;;;3.55;2.05;;;;;;;20.99;45.04;101239.03;5028418;28;20091;-74
2021/09/25 02:20:50;;;;;;;4.20;2.47;;;;;;;20.97;45.25;101242.97;5047117;28;20053;-74
2021/09/25 02:23:17;;;;;;;3.78;2.17;;;;;;;20.96;44.96;101246.75;5046574;28;20128;-73
2021/09/25 02:25:43;;;;;;;4.15;2.17;;;;;;;20.94;45.46;101243.28;5029635;28;20461;-74
2021/09/25 02:28:11;;;;;;;3.92;2.10;;;;;;;20.94;45.44;101246.03;5028663;28;20132;-74
2021/09/25 02:30:37;;;;;;;4.90;2.58;;;;;;;20.91;45.12;101233.44;5047171;28;20132;-74
2021/09/25 02:33:04;;;;;;;3.90;2.38;;;;;;;20.90;45.66;101231.72;5028597;28;20083;-73
2021/09/25 02:35:31;;;;;;;3.72;2.30;;;;;;;20.88;45.08;101225.47;5029486;28;20137;-74
2021/09/25 02:37:57;;;;;;;4.00;2.40;;;;;;;20.87;45.22;101241.16;5045637;28;20419;-73
2021/09/25 02:40:24;;;;;;;3.67;2.20;;;;;;;20.87;45.23;101230.13;5047026;28;20076;-73
2021/09/25 02:42:51;;;;;;;3.60;2.10;;;;;;;20.86;45.51;101233.91;5046013;28;20546;-74
2021/09/25 02:45:19;;;;;;;3.58;2.17;;;;;;;20.86;45.63;101239.44;5046870;28;20091;-73
2021/09/25 02:47:46;;;;;;;4.07;2.30;;;;;;;20.83;45.47;101234.25;5027711;28;20048;-72
2021/09/25 02:50:16;;;;;;;3.30;2.13;;;;;;;20.85;45.39;101236.81;5028538;28;20418;-74
2021/09/25 02:52:43;;;;;;;4.78;2.35;;;;;;;20.81;45.51;101229.91;5028256;28;20055;-72
2021/09/25 02:55:11;;;;;;;3.90;2.20;;;;;;;20.80;45.61;101237.31;5046573;28;20053;-74
2021/09/25 02:57:38;;;;;;;4.85;2.53;;;;;;;20.78;45.57;101232.97;5045266;28;20059;-74
2021/09/25 03:00:11;;;;;;;4.15;2.47;;;;;;;20.79;45.84;101234.72;5046646;28;20081;-74
2021/09/25 03:02:37;;;;;;;4.13;2.30;;;;;;;20.75;45.84;101230.56;5045476;28;20072;-73
2021/09/25 03:05:05;;;;;;;4.40;2.40;;;;;;;20.74;45.63;101229.69;5028895;28;20080;-74
2021/09/25 03:07:31;;;;;;;3.42;2.17;;;;;;;20.71;46.11;101237.41;5044969;28;20053;-74
2021/09/25 03:09:58;;;;;;;4.20;2.17;;;;;;;20.69;45.92;101232.03;5046317;28;20080;-74
2021/09/25 03:12:25;;;;;;;4.35;2.33;;;;;;;20.68;46.11;101235.81;5045235;28;20131;-74
2021/09/25 03:14:52;;;;;;;4.35;2.38;;;;;;;20.68;45.94;101229.41;5028123;28;20049;-74
2021/09/25 03:17:18;;;;;;;4.40;2.35;;;;;;;20.67;46.04;101234.06;5028276;28;20124;-74
2021/09/25 03:19:46;;;;;;;4.30;2.58;;;;;;;20.67;46.12;101231.31;5045333;28;20144;-74
2021/09/25 03:22:16;;;;;;;4.53;2.42;;;;;;;20.69;46.43;101232.03;5028319;28;20115;-73
2021/09/25 03:24:44;;;;;;;3.47;2.40;;;;;;;20.66;46.21;101237.88;5027232;28;20045;-73
2021/09/25 03:27:11;;;;;;;5.75;2.60;;;;;;;20.66;46.07;101231.50;5045807;28;20124;-74
2021/09/25 03:29:37;;;;;;;4.30;2.38;;;;;;;20.65;45.96;101233.38;5026698;28;20509;-74
2021/09/25 03:32:04;;;;;;;4.70;2.40;;;;;;;20.66;45.99;101231.50;5028466;28;20405;-73
2021/09/25 03:34:31;;;;;;;4.40;2.60;;;;;;;20.65;46.14;101229.75;5044822;28;20044;-73
2021/09/25 03:36:57;;;;;;;4.75;2.67;;;;;;;20.64;46.46;101226.13;5028360;28;20144;-74
2021/09/25 03:39:24;;;;;;;4.20;2.42;;;;;;;20.66;46.36;101225.97;5045120;28;20132;-74
2021/09/25 03:41:51;;;;;;;5.00;2.80;;;;;;;20.65;46.46;101227.00;5028158;28;20055;-74
2021/09/25 03:44:20;;;;;;;4.90;3.58;;;;;;;20.66;46.81;101220.47;5044515;28;20481;-73
2021/09/25 03:46:47;;;;;;;4.75;2.40;;;;;;;20.65;46.57;101227.00;5055532;28;20048;-78
2021/09/25 03:49:13;;;;;;;5.30;2.60;;;;;;;20.66;46.74;101225.97;5036724;28;20068;-79
2021/09/25 03:51:40;;;;;;;4.05;2.45;;;;;;;20.67;46.69;101217.53;5054944;28;20052;-77
2021/09/25 03:54:06;;;;;;;4.60;2.70;;;;;;;20.67;46.79;101220.28;5036243;28;20053;-78
2021/09/25 03:56:33;;;;;;;3.85;2.15;;;;;;;20.68;46.83;101213.75;5055212;28;20136;-79
2021/09/25 03:58:59;;;;;;;5.25;3.03;;;;;;;20.69;46.56;101221.00;5053925;28;20117;-79
2021/09/25 04:01:26;;;;;;;4.40;2.95;;;;;;;20.70;46.78;101219.09;5054694;28;20124;-78
2021/09/25 04:03:55;;;;;;;4.82;2.60;;;;;;;20.73;46.91;101216.91;5036471;28;20060;-78
2021/09/25 04:06:23;;;;;;;5.65;2.97;;;;;;;20.74;46.74;101226.06;5037352;28;20080;-78
2021/09/25 04:08:49;;;;;;;4.10;2.50;;;;;;;20.73;46.96;101216.91;5053874;28;20053;-79
2021/09/25 04:11:16;;;;;;;4.53;2.65;;;;;;;20.76;47.03;101221.22;5037040;28;20103;-77
2021/09/25 04:13:42;;;;;;;4.65;2.70;;;;;;;20.76;46.82;101211.03;5035871;28;20136;-79
2021/09/25 04:16:09;;;;;;;4.60;2.58;;;;;;;20.77;46.36;101221.06;5055222;28;20182;-78
2021/09/25 04:18:36;;;;;;;4.70;3.00;;;;;;;20.78;46.71;101219.16;5036206;28;20128;-78
2021/09/25 04:21:02;;;;;;;4.43;2.67;;;;;;;20.79;46.54;101216.25;5036870;28;20077;-78
2021/09/25 04:23:29;;;;;;;4.45;2.72;;;;;;;20.80;46.70;101214.38;5036357;28;20108;-78
2021/09/25 04:25:55;;;;;;;4.07;2.50;;;;;;;20.81;46.84;101216.97;5054745;28;20136;-78
2021/09/25 04:28:22;;;;;;;4.40;2.83;;;;;;;20.81;46.58;101216.97;5035677;28;20132;-77
2021/09/25 04:30:50;;;;;;;5.32;2.78;;;;;;;20.84;46.90;101218.53;5036454;28;20104;-78
2021/09/25 04:33:16;;;;;;;4.00;2.40;;;;;;;20.84;46.52;101219.41;5053768;28;20104;-78
2021/09/25 04:35:43;;;;;;;5.30;3.00;;;;;;;20.85;47.21;101220.25;5036904;28;20482;-79
2021/09/25 04:38:09;;;;;;;4.68;2.65;;;;;;;20.86;46.73;101217.34;5035285;28;20136;-78
2021/09/25 04:40:36;;;;;;;5.32;3.03;;;;;;;20.87;46.57;101223.75;5037405;28;20052;-78
2021/09/25 04:43:03;;;;;;;4.95;2.80;;;;;;;20.88;46.82;101218.06;5053648;28;20052;-78
2021/09/25 04:45:30;;;;;;;4.68;2.92;;;;;;;20.89;46.67;101207.88;5036664;28;20146;-78
2021/09/25 04:47:56;;;;;;;4.30;2.42;;;;;;;20.89;46.87;101213.41;5053705;28;20119;-78
2021/09/25 04:50:28;;;;;;;3.38;2.33;;;;;;;20.91;46.71;101213.25;5037370;28;20045;-78
2021/09/25 04:53:09;;;;;;;5.23;2.57;;;;;;;20.91;47.13;101211.38;5036103;28;20055;-79
2021/09/25 04:55:36;;;;;;;5.60;2.78;;;;;;;20.91;46.68;101210.50;5055170;28;20136;-78
2021/09/25 04:58:04;;;;;;;4.38;2.45;;;;;;;20.92;46.75;101207.53;5060054;28;20049;-78
2021/09/25 05:00:30;;;;;;;5.88;2.53;;;;;;;20.91;47.15;101211.38;5056628;28;20506;-79
2021/09/25 05:02:57;;;;;;;4.95;2.95;;;;;;;20.92;46.91;101215.81;5056080;28;20049;-79
2021/09/25 05:05:25;;;;;;;4.47;2.20;;;;;;;20.92;46.82;101204.78;5056622;28;20460;-77
2021/09/25 05:07:52;;;;;;;3.47;2.45;;;;;;;20.93;46.94;101222.22;5055723;28;20044;-78
2021/09/25 05:10:19;;;;;;;3.75;2.30;;;;;;;20.93;46.66;101216.69;5074406;28;20084;-78
2021/09/25 05:12:46;;;;;;;4.28;2.42;;;;;;;20.93;46.92;101227.75;5055413;28;20085;-78
2021/09/25 05:15:13;;;;;;;3.95;2.35;;;;;;;20.93;47.10;101230.50;5077619;28;20052;-79
2021/09/25 05:17:39;;;;;;;3.45;2.10;;;;;;;20.91;47.17;101225.16;5059581;28;20494;-78
2021/09/25 05:20:08;;;;;;;3.28;2.15;;;;;;;20.93;47.12;101227.75;5059583;28;20044;-78
2021/09/25 05:22:35;;;;;;;3.40;2.40;;;;;;;20.91;47.02;101235.34;5076767;28;20568;-79
2021/09/25 05:25:02;;;;;;;4.00;2.40;;;;;;;20.89;47.00;101229.97;5077911;28;20064;-78
2021/09/25 05:27:29;;;;;;;3.85;2.53;;;;;;;20.89;47.05;101227.22;5058809;28;20052;-79
2021/09/25 05:29:55;;;;;;;4.70;2.53;;;;;;;20.89;47.17;101219.81;5078176;28;20139;-79
2021/09/25 05:32:22;;;;;;;4.07;2.67;;;;;;;20.89;47.13;101228.09;5059836;28;20452;-78
2021/09/25 05:34:48;;;;;;;4.10;2.38;;;;;;;20.90;47.46;101231.72;5059696;28;20052;-78
2021/09/25 05:37:17;;;;;;;4.72;2.38;;;;;;;20.89;47.20;101230.84;5060674;28;20700;-78
2021/09/25 05:39:46;;;;;;;4.93;2.53;;;;;;;20.93;47.26;101233.25;5058955;28;20518;-78
2021/09/25 05:42:14;;;;;;;4.05;2.10;;;;;;;20.90;46.70;101231.72;5060273;28;20055;-78
2021/09/25 05:44:45;;;;;;;4.43;2.42;;;;;;;20.91;47.00;101238.09;5076576;28;20068;-78
2021/09/25 05:47:12;;;;;;;3.92;2.33;;;;;;;20.91;46.88;101241.72;5060193;28;20052;-78
2021/09/25 05:49:40;;;;;;;3.90;2.60;;;;;;;20.92;47.24;101246.19;5076760;28;20068;-79
2021/09/25 05:52:08;;;;;;;4.20;2.40;;;;;;;20.91;47.08;101233.44;5060030;28;20084;-79
2021/09/25 05:54:36;;;;;;;5.18;2.78;;;;;;;20.92;46.91;101237.91;5077281;28;20049;-78
2021/09/25 05:57:05;;;;;;;3.97;2.30;;;;;;;20.94;47.06;101237.75;5078190;28;20076;-79
2021/09/25 05:59:32;;;;;;;4.00;2.53;;;;;;;20.91;47.33;101241.72;5065953;28;20116;-79
2021/09/25 06:01:59;;;;;;;3.55;2.40;;;;;;;20.91;47.32;101247.25;5039230;28;20072;-78
2021/09/25 06:04:26;;;;;;;3.90;2.47;;;;;;;20.91;46.96;101252.78;5055756;28;20143;-77
2021/09/25 06:06:52;;;;;;;3.95;2.03;;;;;;;20.92;47.03;101248.13;5056552;28;20136;-79
2021/09/25 06:09:19;;;;;;;5.22;2.20;;;;;;;20.92;47.01;101253.63;5056491;28;20414;-79
2021/09/25 06:11:46;;;;;;;3.95;2.33;;;;;;;20.92;47.39;101248.94;5036809;28;20048;-78
2021/09/25 06:14:12;;;;;;;3.90;2.25;;;;;;;20.92;47.07;101248.13;5034734;28;20136;-78
2021/09/25 06:16:40;;;;;;;3.92;2.40;;;;;;;20.92;47.16;101240.66;5035918;28;20068;-78
2021/09/25 06:19:07;;;;;;;4.70;2.35;;;;;;;20.93;47.38;101241.53;5034051;28;20049;-78
2021/09/25 06:21:34;;;;;;;3.97;2.47;;;;;;;20.94;47.02;101241.38;5053183;28;20425;-78
2021/09/25 06:24:01;;;;;;;5.25;2.72;;;;;;;20.95;47.08;101240.38;5034242;28;20435;-77
2021/09/25 06:26:27;;;;;;;4.80;2.60;;;;;;;20.96;47.33;101239.34;5034874;28;20053;-77
2021/09/25 06:28:54;;;;;;;3.60;2.50;;;;;;;20.97;47.14;101237.44;5045948;28;20595;-77
2021/09/25 06:31:21;;;;;;;3.92;2.50;;;;;;;20.98;47.36;101248.34;5040586;28;20045;-78
2021/09/25 06:33:48;;;;;;;4.50;2.80;;;;;;;20.99;47.36;101243.69;5015145;28;20057;-78
2021/09/25 06:36:15;;;;;;;4.43;2.65;;;;;;;21.00;47.06;101256.47;5043995;28;20049;-78
2021/09/25 06:38:41;;;;;;;3.95;2.50;;;;;;;21.00;46.97;101257.31;5046751;28;20088;-75
2021/09/25 06:41:08;;;;;;;5.13;2.85;;;;;;;21.00;47.01;101261.97;5046835;28;20053;-76
2021/09/25 06:43:34;;;;;;;3.92;2.90;;;;;;;21.01;47.04;101261.81;5028923;28;20083;-75
2021/09/25 06:46:01;;;;;;;6.03;2.90;;;;;;;21.02;47.12;101254.38;5047087;28;20139;-76
2021/09/25 06:48:27;;;;;;;4.78;2.60;;;;;;;21.01;47.09;101250.75;5046300;28;20051;-67
2021/09/25 06:50:54;;;;;;;4.35;2.65;;;;;;;21.02;46.90;101254.38;5046262;28;20446;-70
2021/09/25 06:53:21;;;;;;;5.07;2.75;;;;;;;21.01;47.11;101253.50;5050168;28;20124;-82
2021/09/25 06:55:47;;;;;;;4.32;2.63;;;;;;;21.03;47.44;101247.84;5054001;28;20052;-76
2021/09/25 06:58:14;;;;;;;5.35;3.08;;;;;;;21.03;46.94;101251.47;5035474;28;20124;-78
2021/09/25 07:00:46;;;;;;;4.45;2.92;;;;;;;21.04;47.29;101255.09;5037030;28;20067;-76
2021/09/25 07:03:17;;;;;;;5.30;2.80;;;;;;;21.04;47.03;101247.69;5052579;28;20387;-77
2021/09/25 07:05:44;;;;;;;4.00;2.70;;;;;;;21.05;47.44;101259.59;5036484;28;20045;-77
2021/09/25 07:08:12;;;;;;;5.88;3.10;;;;;;;21.07;47.43;101255.66;5034617;28;20051;-77
2021/09/25 07:10:38;;;;;;;5.35;3.10;;;;;;;21.09;47.13;101252.72;5036154;28;20049;-76
2021/09/25 07:13:05;;;;;;;5.22;3.28;;;;;;;21.11;47.62;101254.28;5034441;28;20049;-76
2021/09/25 07:15:32;;;;;;;5.38;3.17;;;;;;;21.13;47.27;101262.44;5035570;28;20076;-76
2021/09/25 07:17:59;;;;;;;4.93;2.80;;;;;;;21.14;47.55;101261.41;5034429;28;20566;-78
2021/09/25 07:20:26;;;;;;;5.18;3.08;;;;;;;21.15;47.61;101261.25;5053237;28;20571;-77
2021/09/25 07:22:58;;;;;;;5.25;3.15;;;;;;;21.20;47.63;101260.78;5052432;28;20391;-76
2021/09/25 07:25:27;;;;;;;;;;;;;;;20.93;47.75;101263.63;5036250;28;20079;-78
2021/09/25 07:27:54;;;;;;;5.03;2.80;;;;;;;21.15;47.28;101266.78;5052365;28;20027;-78
2021/09/25 07:30:21;;;;;;;4.63;3.17;;;;;;;21.20;47.55;101267.16;5053121;28;20104;-77
2021/09/25 07:32:47;;;;;;;5.13;3.35;;;;;;;21.22;47.28;101265.13;5052841;28;20088;-78
2021/09/25 07:35:15;;;;;;;5.70;3.35;;;;;;;21.24;47.20;101274.13;5036365;28;20055;-76
2021/09/25 07:37:43;;;;;;;4.82;3.30;;;;;;;21.25;47.00;101267.53;5034523;28;20068;-78
2021/09/25 07:40:10;;;;;;;4.40;2.92;;;;;;;21.27;47.09;101279.31;5035655;28;20246;-77
2021/09/25 07:42:37;;;;;;;5.18;3.08;;;;;;;21.27;47.38;101279.31;5053328;28;20080;-78
2021/09/25 07:45:04;;;;;;;6.30;3.50;;;;;;;21.31;47.22;101277.09;5053364;28;20051;-75
2021/09/25 07:47:31;;;;;;;5.70;3.35;;;;;;;21.32;47.28;101277.97;5052678;28;20132;-77
2021/09/25 07:49:57;;;;;;;5.90;3.20;;;;;;;21.32;47.15;101283.50;5054496;28;20056;-77
2021/09/25 07:52:24;;;;;;;4.72;3.08;;;;;;;21.33;47.35;101290.75;5053010;28;20524;-77
2021/09/25 07:54:50;;;;;;;4.88;3.25;;;;;;;21.33;47.04;101297.13;5036533;28;20124;-77
2021/09/25 07:57:17;;;;;;;4.70;3.00;;;;;;;21.35;47.42;101299.72;5053821;28;20053;-76
2021/09/25 07:59:44;;;;;;;4.47;2.85;;;;;;;21.36;47.21;101298.69;5035783;28;20102;-78
2021/09/25 08:02:10;;;;;;;5.25;2.97;;;;;;;21.38;47.08;101299.41;5054111;28;20552;-76
2021/09/25 08:04:37;;;;;;;4.65;3.30;;;;;;;21.39;47.22;101302.03;5034521;28;20045;-77
2021/09/25 08:07:04;;;;;;;5.65;3.38;;;;;;;21.41;47.62;101304.63;5036156;28;20049;-76
2021/09/25 08:09:30;;;;;;;4.97;3.17;;;;;;;21.43;47.48;101310.81;5034738;28;20057;-75
2021/09/25 08:11:57;;;;;;;5.32;3.50;;;;;;;21.45;47.62;101308.78;5053793;22;20509;-72
2021/09/25 08:14:23;;;;;;;4.90;3.30;;;;;;;21.45;47.35;101301.38;5014199;28;20046;-72
2021/09/25 08:16:51;;;;;;;5.55;3.30;;;;;;;21.46;47.39;101300.34;5005200;28;20128;-72
2021/09/25 08:19:18;;;;;;;4.97;3.33;;;;;;;21.49;47.19;101308.31;5004824;28;20084;-72
2021/09/25 08:21:44;;;;;;;5.75;3.45;;;;;;;21.50;47.50;101306.38;5005634;28;20046;-72
2021/09/25 08:24:11;;;;;;;5.40;3.60;;;;;;;21.51;47.47;101309.00;5004786;28;20133;-72
2021/09/25 08:26:38;;;;;;;5.30;3.08;;;;;;;21.53;47.39;101308.84;5005452;28;20144;-72
2021/09/25 08:29:04;;;;;;;5.00;3.83;;;;;;;21.53;47.14;101298.66;5004387;28;20615;-72
2021/09/25 08:31:31;;;;;;;5.22;3.22;;;;;;;21.55;47.40;101304.88;5005478;28;20056;-72
2021/09/25 08:33:58;;;;;;;5.60;3.13;;;;;;;21.57;47.27;101308.38;5004641;28;20080;-73
2021/09/25 08:36:24;;;;;;;6.65;3.55;;;;;;;21.59;47.63;101308.19;5005545;28;20089;-73
2021/09/25 08:39:06;;;;;;;5.72;3.95;;;;;;;21.60;47.61;101313.53;5004795;28;20074;-73
2021/09/25 08:41:34;;;;;;;5.40;3.33;;;;;;;21.63;47.14;101312.38;5005597;28;20086;-73
2021/09/25 08:44:01;;;;;;;5.45;3.08;;;;;;;21.64;47.11;101311.34;5004312;28;20046;-72
2021/09/25 08:46:27;;;;;;;7.38;3.75;;;;;;;21.66;47.67;101312.00;5005195;28;20519;-72
2021/09/25 08:48:55;;;;;;;5.53;3.72;;;;;;;21.71;47.46;101311.53;5006589;28;20049;-73
2021/09/25 08:51:21;;;;;;;5.95;3.78;;;;;;;21.71;47.21;101304.13;5009410;28;20129;-73
2021/09/25 08:53:48;;;;;;;5.18;3.38;;;;;;;21.73;47.09;101309.50;5012301;28;20515;-73
2021/09/25 08:56:14;;;;;;;6.30;3.47;;;;;;;21.76;47.58;101315.53;5009182;28;20137;-73
2021/09/25 08:58:41;;;;;;;6.75;3.10;;;;;;;21.79;47.34;101318.00;5008227;28;20477;-73
2021/09/25 09:01:17;;;;;;;6.63;3.70;;;;;;;21.85;47.27;101321.97;5009234;28;20053;-72
2021/09/25 09:03:47;;;;;;;5.72;3.85;;;;;;;21.86;47.72;101319.06;5008274;28;20050;-73
2021/09/25 09:06:26;;;;;;;5.28;3.10;;;;;;;21.90;47.63;101326.00;5008781;28;20072;-72
2021/09/25 09:08:54;;;;;;;5.18;3.50;;;;;;;21.91;47.55;101332.38;5008093;28;20046;-73
2021/09/25 09:11:23;;;;;;;5.50;3.58;;;;;;;21.95;47.13;101328.28;5009210;28;20137;-73
2021/09/25 09:13:56;;;;;;;6.03;3.55;;;;;;;21.98;47.30;101333.50;5007789;28;20050;-73
2021/09/25 09:16:24;;;;;;;5.68;3.90;;;;;;;21.99;47.78;101333.31;5008564;28;20073;-73
2021/09/25 09:18:52;;;;;;;5.35;3.63;;;;;;;22.03;47.73;101331.09;5008244;28;20136;-73
2021/09/25 09:21:20;;;;;;;4.85;3.30;;;;;;;22.10;47.68;101339.59;5008969;28;20101;-72
2021/09/25 09:23:59;;;;;;;5.90;3.40;;;;;;;22.14;47.65;101339.13;5007397;28;20077;-72
2021/09/25 09:26:29;;;;;;;6.18;3.88;;;;;;;22.15;47.79;101337.22;5008797;28;20096;-73
2021/09/25 09:28:58;;;;;;;5.55;3.47;;;;;;;22.19;47.81;101333.09;5007399;28;20125;-73
2021/09/25 09:31:26;;;;;;;5.05;3.42;;;;;;;22.22;47.37;101339.16;5008191;28;20085;-73
2021/09/25 09:33:55;;;;;;;6.03;3.28;;;;;;;22.27;47.61;101344.19;5007678;28;20499;-73
2021/09/25 09:36:26;;;;;;;6.50;4.03;;;;;;;22.32;47.37;101333.47;5008635;28;20478;-72
2021/09/25 09:39:11;;;;;;;6.03;3.80;;;;;;;22.32;47.22;101326.03;5007592;28;20137;-72
2021/09/25 09:41:44;;;;;;;7.72;3.53;;;;;;;22.40;47.68;101326.06;5008719;28;20080;-72
2021/09/25 09:44:18;;;;;;;5.45;3.47;;;;;;;22.44;47.40;101326.59;5006269;28;20129;-73
2021/09/25 09:46:50;;;;;;;6.25;4.10;;;;;;;22.48;47.71;101332.69;5007897;28;20108;-73
2021/09/25 09:49:20;;;;;;;4.82;3.40;;;;;;;22.46;47.47;101338.38;5001361;28;20060;-73
2021/09/25 09:51:53;;;;;;;7.00;3.38;;;;;;;22.56;47.66;101339.13;5008538;28;20060;-72
2021/09/25 09:54:26;;;;;;;5.93;3.63;;;;;;;22.55;47.29;101340.16;4995639;28;20045;-72
2021/09/25 09:57:00;;;;;;;5.78;3.70;;;;;;;22.65;47.64;101334.44;5008009;28;20081;-73
2021/09/25 09:59:28;;;;;;;5.05;3.00;;;;;;;22.67;47.41;101337.91;5006773;28;20111;-73
2021/09/25 10:01:54;;;;;;;5.88;3.75;;;;;;;22.70;47.50;101337.59;5008350;28;20105;-72
2021/09/25 10:04:21;;;;;;;5.72;3.70;;;;;;;22.76;47.76;101335.03;5007327;28;20483;-72
2021/09/25 10:06:51;;;;;;;6.60;4.00;;;;;;;22.82;47.54;101336.25;5007986;28;20570;-73
2021/09/25 10:09:23;;;;;;;5.30;3.33;;;;;;;22.90;47.17;101327.94;5007090;28;20073;-73
2021/09/25 10:11:52;;;;;;;5.78;3.63;;;;;;;22.91;47.56;101334.34;5008029;28;20176;-73
2021/09/25 10:14:22;;;;;;;5.30;3.58;;;;;;;22.97;46.91;101317.06;5006504;28;20577;-72
2021/09/25 10:16:51;;;;;;;6.53;3.92;;;;;;;23.02;47.07;101336.81;5007500;28;20108;-74
2021/09/25 10:19:27;;;;;;;5.43;3.15;;;;;;;23.08;46.95;101322.25;5006596;28;20473;-71
2021/09/25 10:21:56;;;;;;;6.15;3.58;;;;;;;23.13;47.02;101315.19;5007861;28;20470;-71
2021/09/25 10:24:45;;;;;;;6.10;3.40;;;;;;;23.20;46.65;101312.59;5006609;28;20080;-71
2021/09/25 10:27:12;;;;;;;4.50;3.08;;;;;;;23.21;46.99;101307.91;5007612;28;20053;-71
2021/09/25 10:29:47;;;;;;;6.00;3.33;;;;;;;23.29;46.96;101306.00;5005155;28;20068;-72
2021/09/25 10:32:29;;;;;;;4.72;3.30;;;;;;;23.34;46.93;101300.78;5007430;28;20073;-72
2021/09/25 10:35:17;;;;;;;5.85;3.30;;;;;;;23.38;46.31;101295.78;5006607;28;20541;-71
2021/09/25 10:37:50;;;;;;;5.30;3.22;;;;;;;23.42;46.64;101295.25;5006122;28;20129;-72
2021/09/25 10:40:39;;;;;;;6.43;3.45;;;;;;;23.46;46.94;101299.41;5007050;28;20050;-72
2021/09/25 10:43:23;;;;;;;5.28;3.03;;;;;;;23.57;45.98;101297.31;5006358;28;20084;-72
2021/09/25 10:45:53;;;;;;;5.03;3.17;;;;;;;23.57;46.41;101298.19;5007011;28;20049;-71
2021/09/25 10:48:19;;;;;;;5.10;3.17;;;;;;;23.60;46.65;101297.84;5005982;28;20540;-72
2021/09/25 10:50:50;;;;;;;4.60;3.00;;;;;;;23.68;45.95;101294.19;5006879;28;20046;-72
2021/09/25 10:53:20;;;;;;;5.28;2.80;;;;;;;23.72;46.02;101295.56;4988576;28;20107;-73
2021/09/25 10:55:50;;;;;;;5.18;2.92;;;;;;;23.74;46.43;101297.09;5006855;28;20133;-73
2021/09/25 10:58:24;;;;;;;5.30;3.25;;;;;;;23.81;45.98;101303.66;5006045;28;20125;-73
2021/09/25 11:01:13;;;;;;;4.97;3.20;;;;;;;23.84;45.94;101300.56;5006910;28;20056;-72
2021/09/25 11:03:43;;;;;;;5.32;3.00;;;;;;;23.85;45.96;101298.66;5004337;28;20046;-72
2021/09/25 11:06:14;;;;;;;4.70;2.75;;;;;;;23.89;45.99;101287.00;5006765;28;20542;-73
2021/09/25 11:08:48;;;;;;;3.80;2.75;;;;;;;23.98;45.48;101287.84;5006080;28;20476;-73
2021/09/25 11:11:17;;;;;;;4.03;2.53;;;;;;;24.00;45.40;101290.44;5006120;28;20475;-73
2021/09/25 11:14:05;;;;;;;5.40;2.72;;;;;;;24.04;45.50;101289.91;5006103;28;20610;-73
2021/09/25 11:17:07;;;;;;;5.65;2.85;;;;;;;24.07;45.07;101284.00;5006302;28;20133;-73
2021/09/25 11:19:42;;;;;;;7.30;2.42;;;;;;;24.12;45.13;101280.69;5005835;28;20060;-73
2021/09/25 11:22:21;;;;;;;4.20;2.63;;;;;;;24.16;44.48;101284.81;5006950;28;20045;-73
2021/09/25 11:25:07;;;;;;;4.38;2.70;;;;;;;24.18;45.00;101274.41;5005792;28;20041;-73
2021/09/25 11:27:37;;;;;;;4.57;2.35;;;;;;;24.20;45.43;101278.78;4989388;28;20089;-73
2021/09/25 11:30:04;;;;;;;4.93;2.50;;;;;;;24.21;45.28;101271.31;5006423;28;20104;-73